sensor_id;sensor_type;location;lat;lon;timestamp;P1;durP1;ratioP1;P2;durP2;ratioP2
71464;SDS011;59274;49.874;9.154;2024-02-26T00:00:14;6.53;;;2.10;;
71464;SDS011;59274;49.874;9.154;2024-02-26T00:02:40;5.97;;;2.17;;
71464;SDS011;59274;49.874;9.154;2024-02-26T00:05:07;5.40;;;2.23;;
71464;SDS011;59274;49.874;9.154;2024-02-26T00:07:33;7.18;;;2.20;;
71464;SDS011;59274;49.874;9.154;2024-02-26T00:09:58;4.83;;;2.20;;
71464;SDS011;59274;49.874;9.154;2024-02-26T00:12:24;5.85;;;2.38;;
71464;SDS011;59274;49.874;9.154;2024-02-26T00:14:50;4.93;;;2.07;;
71464;SDS011;59274;49.874;9.154;2024-02-26T00:17:20;4.57;;;2.13;;
71464;SDS011;59274;49.874;9.154;2024-02-26T00:19:45;4.78;;;2.00;;
71464;SDS011;59274;49.874;9.154;2024-02-26T00:22:11;5.67;;;2.37;;
71464;SDS011;59274;49.874;9.154;2024-02-26T00:24:36;5.20;;;2.43;;
71464;SDS011;59274;49.874;9.154;2024-02-26T00:27:02;4.93;;;2.03;;
71464;SDS011;59274;49.874;9.154;2024-02-26T00:29:28;7.65;;;2.78;;
71464;SDS011;59274;49.874;9.154;2024-02-26T00:31:54;7.68;;;2.70;;
71464;SDS011;59274;49.874;9.154;2024-02-26T00:34:19;7.20;;;2.90;;
71464;SDS011;59274;49.874;9.154;2024-02-26T00:36:44;7.80;;;2.70;;
71464;SDS011;59274;49.874;9.154;2024-02-26T00:39:11;7.17;;;2.57;;
71464;SDS011;59274;49.874;9.154;2024-02-26T00:41:40;5.95;;;2.30;;
71464;SDS011;59274;49.874;9.154;2024-02-26T00:44:06;5.15;;;2.15;;
71464;SDS011;59274;49.874;9.154;2024-02-26T00:46:32;6.32;;;2.65;;
71464;SDS011;59274;49.874;9.154;2024-02-26T00:48:57;6.50;;;2.43;;
71464;SDS011;59274;49.874;9.154;2024-02-26T00:51:23;7.30;;;2.72;;
71464;SDS011;59274;49.874;9.154;2024-02-26T00:53:48;7.28;;;3.05;;
71464;SDS011;59274;49.874;9.154;2024-02-26T00:56:14;8.60;;;3.10;;
71464;SDS011;59274;49.874;9.154;2024-02-26T00:58:40;8.15;;;2.72;;
71464;SDS011;59274;49.874;9.154;2024-02-26T01:01:05;7.77;;;2.97;;
71464;SDS011;59274;49.874;9.154;2024-02-26T01:03:31;7.23;;;3.00;;
71464;SDS011;59274;49.874;9.154;2024-02-26T01:05:56;7.63;;;2.90;;
71464;SDS011;59274;49.874;9.154;2024-02-26T01:08:21;6.63;;;2.85;;
71464;SDS011;59274;49.874;9.154;2024-02-26T01:10:47;7.30;;;2.70;;
71464;SDS011;59274;49.874;9.154;2024-02-26T01:13:13;8.23;;;2.60;;
71464;SDS011;59274;49.874;9.154;2024-02-26T01:15:39;6.15;;;2.53;;
71464;SDS011;59274;49.874;9.154;2024-02-26T01:18:04;6.00;;;2.38;;
71464;SDS011;59274;49.874;9.154;2024-02-26T01:20:30;6.63;;;2.27;;
71464;SDS011;59274;49.874;9.154;2024-02-26T01:22:56;5.43;;;2.20;;
71464;SDS011;59274;49.874;9.154;2024-02-26T01:25:21;5.80;;;2.30;;
71464;SDS011;59274;49.874;9.154;2024-02-26T01:27:47;6.87;;;2.20;;
71464;SDS011;59274;49.874;9.154;2024-02-26T01:30:15;5.03;;;2.03;;
71464;SDS011;59274;49.874;9.154;2024-02-26T01:32:42;7.32;;;2.53;;
71464;SDS011;59274;49.874;9.154;2024-02-26T01:35:08;6.27;;;2.37;;
71464;SDS011;59274;49.874;9.154;2024-02-26T01:37:36;5.22;;;2.20;;
71464;SDS011;59274;49.874;9.154;2024-02-26T01:40:02;5.65;;;2.22;;
71464;SDS011;59274;49.874;9.154;2024-02-26T01:42:30;5.90;;;2.50;;
71464;SDS011;59274;49.874;9.154;2024-02-26T01:44:57;5.33;;;2.30;;
71464;SDS011;59274;49.874;9.154;2024-02-26T01:47:23;7.82;;;3.13;;
71464;SDS011;59274;49.874;9.154;2024-02-26T01:49:50;7.40;;;3.20;;
71464;SDS011;59274;49.874;9.154;2024-02-26T01:52:16;6.17;;;2.50;;
71464;SDS011;59274;49.874;9.154;2024-02-26T01:54:42;6.97;;;2.42;;
71464;SDS011;59274;49.874;9.154;2024-02-26T01:57:10;5.68;;;2.40;;
71464;SDS011;59274;49.874;9.154;2024-02-26T01:59:37;5.80;;;2.47;;
71464;SDS011;59274;49.874;9.154;2024-02-26T02:02:05;6.15;;;2.10;;
71464;SDS011;59274;49.874;9.154;2024-02-26T02:04:32;5.43;;;2.30;;
71464;SDS011;59274;49.874;9.154;2024-02-26T02:06:58;5.82;;;2.30;;
71464;SDS011;59274;49.874;9.154;2024-02-26T02:09:27;4.78;;;2.25;;
71464;SDS011;59274;49.874;9.154;2024-02-26T02:11:53;5.88;;;2.35;;
71464;SDS011;59274;49.874;9.154;2024-02-26T02:14:18;6.57;;;2.58;;
71464;SDS011;59274;49.874;9.154;2024-02-26T02:16:44;6.05;;;2.70;;
71464;SDS011;59274;49.874;9.154;2024-02-26T02:19:09;7.87;;;3.30;;
71464;SDS011;59274;49.874;9.154;2024-02-26T02:21:35;7.50;;;2.83;;
71464;SDS011;59274;49.874;9.154;2024-02-26T02:24:00;6.50;;;2.90;;
71464;SDS011;59274;49.874;9.154;2024-02-26T02:26:25;6.70;;;2.80;;
71464;SDS011;59274;49.874;9.154;2024-02-26T02:28:51;6.43;;;2.97;;
71464;SDS011;59274;49.874;9.154;2024-02-26T02:31:18;6.80;;;2.83;;
71464;SDS011;59274;49.874;9.154;2024-02-26T02:33:43;6.33;;;2.80;;
71464;SDS011;59274;49.874;9.154;2024-02-26T02:36:09;8.35;;;2.78;;
71464;SDS011;59274;49.874;9.154;2024-02-26T02:38:36;6.87;;;2.80;;
71464;SDS011;59274;49.874;9.154;2024-02-26T02:41:02;7.32;;;2.85;;
71464;SDS011;59274;49.874;9.154;2024-02-26T02:43:28;8.23;;;3.17;;
71464;SDS011;59274;49.874;9.154;2024-02-26T02:45:53;8.10;;;2.80;;
71464;SDS011;59274;49.874;9.154;2024-02-26T02:48:19;7.50;;;3.20;;
71464;SDS011;59274;49.874;9.154;2024-02-26T02:50:44;9.43;;;3.40;;
71464;SDS011;59274;49.874;9.154;2024-02-26T02:53:10;6.90;;;3.20;;
71464;SDS011;59274;49.874;9.154;2024-02-26T02:55:35;6.83;;;3.20;;
71464;SDS011;59274;49.874;9.154;2024-02-26T02:58:01;6.68;;;2.70;;
71464;SDS011;59274;49.874;9.154;2024-02-26T03:00:26;7.20;;;3.00;;
71464;SDS011;59274;49.874;9.154;2024-02-26T03:02:52;5.77;;;2.50;;
71464;SDS011;59274;49.874;9.154;2024-02-26T03:05:17;7.87;;;2.70;;
71464;SDS011;59274;49.874;9.154;2024-02-26T03:07:43;8.68;;;3.17;;
71464;SDS011;59274;49.874;9.154;2024-02-26T03:10:08;6.82;;;3.13;;
71464;SDS011;59274;49.874;9.154;2024-02-26T03:12:34;7.27;;;3.37;;
71464;SDS011;59274;49.874;9.154;2024-02-26T03:14:59;6.30;;;2.87;;
71464;SDS011;59274;49.874;9.154;2024-02-26T03:17:28;8.35;;;2.95;;
71464;SDS011;59274;49.874;9.154;2024-02-26T03:19:53;7.50;;;3.15;;
71464;SDS011;59274;49.874;9.154;2024-02-26T03:22:19;7.73;;;2.83;;
71464;SDS011;59274;49.874;9.154;2024-02-26T03:24:45;6.20;;;2.80;;
71464;SDS011;59274;49.874;9.154;2024-02-26T03:27:11;6.97;;;3.30;;
71464;SDS011;59274;49.874;9.154;2024-02-26T03:29:39;8.57;;;3.50;;
71464;SDS011;59274;49.874;9.154;2024-02-26T03:32:05;9.35;;;3.58;;
71464;SDS011;59274;49.874;9.154;2024-02-26T03:34:31;9.75;;;3.92;;
71464;SDS011;59274;49.874;9.154;2024-02-26T03:36:59;9.32;;;3.75;;
71464;SDS011;59274;49.874;9.154;2024-02-26T03:39:25;11.83;;;3.80;;
71464;SDS011;59274;49.874;9.154;2024-02-26T03:41:50;8.05;;;3.47;;
71464;SDS011;59274;49.874;9.154;2024-02-26T03:44:16;11.27;;;3.73;;
71464;SDS011;59274;49.874;9.154;2024-02-26T03:46:41;9.60;;;3.70;;
71464;SDS011;59274;49.874;9.154;2024-02-26T03:49:10;8.15;;;3.42;;
71464;SDS011;59274;49.874;9.154;2024-02-26T03:51:35;7.87;;;4.00;;
71464;SDS011;59274;49.874;9.154;2024-02-26T03:54:01;8.30;;;3.65;;
71464;SDS011;59274;49.874;9.154;2024-02-26T03:56:26;9.10;;;3.40;;
71464;SDS011;59274;49.874;9.154;2024-02-26T03:58:52;9.15;;;4.00;;
71464;SDS011;59274;49.874;9.154;2024-02-26T04:01:18;7.47;;;3.58;;
71464;SDS011;59274;49.874;9.154;2024-02-26T04:03:44;9.40;;;3.40;;
71464;SDS011;59274;49.874;9.154;2024-02-26T04:06:10;7.63;;;3.83;;
71464;SDS011;59274;49.874;9.154;2024-02-26T04:08:36;21.45;;;8.68;;
71464;SDS011;59274;49.874;9.154;2024-02-26T04:11:03;10.25;;;4.35;;
71464;SDS011;59274;49.874;9.154;2024-02-26T04:13:35;8.37;;;3.60;;
71464;SDS011;59274;49.874;9.154;2024-02-26T04:16:03;8.02;;;3.70;;
71464;SDS011;59274;49.874;9.154;2024-02-26T04:18:29;8.32;;;4.03;;
71464;SDS011;59274;49.874;9.154;2024-02-26T04:20:55;9.80;;;3.90;;
71464;SDS011;59274;49.874;9.154;2024-02-26T04:23:21;9.27;;;4.40;;
71464;SDS011;59274;49.874;9.154;2024-02-26T04:25:47;9.82;;;4.25;;
71464;SDS011;59274;49.874;9.154;2024-02-26T04:28:13;9.82;;;4.38;;
71464;SDS011;59274;49.874;9.154;2024-02-26T04:30:38;10.50;;;4.23;;
71464;SDS011;59274;49.874;9.154;2024-02-26T04:33:04;10.57;;;4.40;;
71464;SDS011;59274;49.874;9.154;2024-02-26T04:35:30;9.05;;;3.97;;
71464;SDS011;59274;49.874;9.154;2024-02-26T04:37:55;9.80;;;3.90;;
71464;SDS011;59274;49.874;9.154;2024-02-26T04:40:21;8.95;;;3.95;;
71464;SDS011;59274;49.874;9.154;2024-02-26T04:42:46;10.75;;;3.95;;
71464;SDS011;59274;49.874;9.154;2024-02-26T04:45:12;7.57;;;3.33;;
71464;SDS011;59274;49.874;9.154;2024-02-26T04:47:37;8.40;;;3.50;;
71464;SDS011;59274;49.874;9.154;2024-02-26T04:50:03;7.20;;;3.07;;
71464;SDS011;59274;49.874;9.154;2024-02-26T04:52:29;8.15;;;3.28;;
71464;SDS011;59274;49.874;9.154;2024-02-26T04:54:54;9.13;;;3.50;;
71464;SDS011;59274;49.874;9.154;2024-02-26T04:57:21;8.38;;;3.40;;
71464;SDS011;59274;49.874;9.154;2024-02-26T04:59:46;7.90;;;3.70;;
71464;SDS011;59274;49.874;9.154;2024-02-26T05:02:12;20.80;;;8.27;;
71464;SDS011;59274;49.874;9.154;2024-02-26T05:04:37;14.93;;;5.20;;
71464;SDS011;59274;49.874;9.154;2024-02-26T05:07:03;12.63;;;5.10;;
71464;SDS011;59274;49.874;9.154;2024-02-26T05:09:29;15.13;;;6.13;;
71464;SDS011;59274;49.874;9.154;2024-02-26T05:11:54;10.45;;;4.85;;
71464;SDS011;59274;49.874;9.154;2024-02-26T05:14:20;8.80;;;3.78;;
71464;SDS011;59274;49.874;9.154;2024-02-26T05:16:46;7.43;;;3.30;;
71464;SDS011;59274;49.874;9.154;2024-02-26T05:19:12;6.03;;;2.85;;
71464;SDS011;59274;49.874;9.154;2024-02-26T05:21:37;7.27;;;3.23;;
71464;SDS011;59274;49.874;9.154;2024-02-26T05:24:03;6.93;;;3.30;;
71464;SDS011;59274;49.874;9.154;2024-02-26T05:26:28;6.93;;;3.00;;
71464;SDS011;59274;49.874;9.154;2024-02-26T05:28:54;9.37;;;3.37;;
71464;SDS011;59274;49.874;9.154;2024-02-26T05:31:24;8.97;;;4.13;;
71464;SDS011;59274;49.874;9.154;2024-02-26T05:33:50;7.68;;;2.92;;
71464;SDS011;59274;49.874;9.154;2024-02-26T05:36:18;8.87;;;3.83;;
71464;SDS011;59274;49.874;9.154;2024-02-26T05:38:46;8.20;;;3.38;;
71464;SDS011;59274;49.874;9.154;2024-02-26T05:41:11;8.70;;;3.40;;
71464;SDS011;59274;49.874;9.154;2024-02-26T05:43:37;6.88;;;3.03;;
71464;SDS011;59274;49.874;9.154;2024-02-26T05:46:02;8.43;;;3.20;;
71464;SDS011;59274;49.874;9.154;2024-02-26T05:48:28;7.90;;;3.20;;
71464;SDS011;59274;49.874;9.154;2024-02-26T05:50:53;7.80;;;3.37;;
71464;SDS011;59274;49.874;9.154;2024-02-26T05:53:18;9.60;;;4.23;;
71464;SDS011;59274;49.874;9.154;2024-02-26T05:55:44;9.85;;;4.18;;
71464;SDS011;59274;49.874;9.154;2024-02-26T05:58:09;9.80;;;4.20;;
71464;SDS011;59274;49.874;9.154;2024-02-26T06:00:34;11.10;;;4.87;;
71464;SDS011;59274;49.874;9.154;2024-02-26T06:03:00;9.23;;;4.60;;
71464;SDS011;59274;49.874;9.154;2024-02-26T06:05:25;10.23;;;4.07;;
71464;SDS011;59274;49.874;9.154;2024-02-26T06:07:51;8.45;;;3.65;;
71464;SDS011;59274;49.874;9.154;2024-02-26T06:10:17;10.57;;;3.67;;
71464;SDS011;59274;49.874;9.154;2024-02-26T06:12:46;7.72;;;3.30;;
71464;SDS011;59274;49.874;9.154;2024-02-26T06:15:11;9.97;;;3.30;;
71464;SDS011;59274;49.874;9.154;2024-02-26T06:17:38;8.93;;;3.40;;
71464;SDS011;59274;49.874;9.154;2024-02-26T06:20:03;8.57;;;3.53;;
71464;SDS011;59274;49.874;9.154;2024-02-26T06:22:34;7.45;;;3.50;;
71464;SDS011;59274;49.874;9.154;2024-02-26T06:24:59;9.60;;;3.70;;
71464;SDS011;59274;49.874;9.154;2024-02-26T06:27:25;11.85;;;4.00;;
71464;SDS011;59274;49.874;9.154;2024-02-26T06:29:50;9.53;;;3.37;;
71464;SDS011;59274;49.874;9.154;2024-02-26T06:32:16;7.23;;;3.10;;
71464;SDS011;59274;49.874;9.154;2024-02-26T06:34:41;7.47;;;3.10;;
71464;SDS011;59274;49.874;9.154;2024-02-26T06:37:09;7.87;;;3.50;;
71464;SDS011;59274;49.874;9.154;2024-02-26T06:39:35;7.82;;;3.03;;
71464;SDS011;59274;49.874;9.154;2024-02-26T06:42:00;8.40;;;3.57;;
71464;SDS011;59274;49.874;9.154;2024-02-26T06:44:27;7.25;;;3.13;;
71464;SDS011;59274;49.874;9.154;2024-02-26T06:46:57;8.02;;;3.45;;
71464;SDS011;59274;49.874;9.154;2024-02-26T06:49:24;8.07;;;3.10;;
71464;SDS011;59274;49.874;9.154;2024-02-26T06:51:50;8.25;;;3.30;;
71464;SDS011;59274;49.874;9.154;2024-02-26T06:54:15;7.70;;;3.70;;
71464;SDS011;59274;49.874;9.154;2024-02-26T06:56:40;11.07;;;3.60;;
71464;SDS011;59274;49.874;9.154;2024-02-26T06:59:06;10.03;;;3.60;;
71464;SDS011;59274;49.874;9.154;2024-02-26T07:01:31;9.25;;;3.70;;
71464;SDS011;59274;49.874;9.154;2024-02-26T07:03:57;8.47;;;3.53;;
71464;SDS011;59274;49.874;9.154;2024-02-26T07:06:22;7.97;;;3.53;;
71464;SDS011;59274;49.874;9.154;2024-02-26T07:08:47;8.40;;;3.43;;
71464;SDS011;59274;49.874;9.154;2024-02-26T07:11:13;10.87;;;4.00;;
71464;SDS011;59274;49.874;9.154;2024-02-26T07:13:39;9.73;;;3.85;;
71464;SDS011;59274;49.874;9.154;2024-02-26T07:16:04;12.33;;;4.50;;
71464;SDS011;59274;49.874;9.154;2024-02-26T07:18:30;8.90;;;4.07;;
71464;SDS011;59274;49.874;9.154;2024-02-26T07:20:55;9.43;;;4.90;;
71464;SDS011;59274;49.874;9.154;2024-02-26T07:23:21;10.03;;;4.27;;
71464;SDS011;59274;49.874;9.154;2024-02-26T07:25:46;11.27;;;4.77;;
71464;SDS011;59274;49.874;9.154;2024-02-26T07:28:14;10.07;;;4.72;;
71464;SDS011;59274;49.874;9.154;2024-02-26T07:30:40;10.95;;;4.80;;
71464;SDS011;59274;49.874;9.154;2024-02-26T07:33:05;11.40;;;4.60;;
71464;SDS011;59274;49.874;9.154;2024-02-26T07:35:31;10.32;;;4.88;;
71464;SDS011;59274;49.874;9.154;2024-02-26T07:37:58;12.23;;;5.40;;
71464;SDS011;59274;49.874;9.154;2024-02-26T07:40:24;14.10;;;5.57;;
71464;SDS011;59274;49.874;9.154;2024-02-26T07:42:49;11.27;;;4.90;;
71464;SDS011;59274;49.874;9.154;2024-02-26T07:45:14;13.03;;;5.47;;
71464;SDS011;59274;49.874;9.154;2024-02-26T07:47:40;12.68;;;5.78;;
71464;SDS011;59274;49.874;9.154;2024-02-26T07:50:07;10.30;;;5.07;;
71464;SDS011;59274;49.874;9.154;2024-02-26T07:52:33;12.65;;;5.45;;
71464;SDS011;59274;49.874;9.154;2024-02-26T07:54:59;10.37;;;5.03;;
71464;SDS011;59274;49.874;9.154;2024-02-26T07:57:24;12.98;;;5.28;;
71464;SDS011;59274;49.874;9.154;2024-02-26T07:59:49;11.50;;;4.40;;
71464;SDS011;59274;49.874;9.154;2024-02-26T08:02:15;11.20;;;4.90;;
71464;SDS011;59274;49.874;9.154;2024-02-26T08:04:41;10.05;;;4.97;;
71464;SDS011;59274;49.874;9.154;2024-02-26T08:07:06;11.17;;;5.10;;
71464;SDS011;59274;49.874;9.154;2024-02-26T08:09:32;10.90;;;5.20;;
71464;SDS011;59274;49.874;9.154;2024-02-26T08:11:58;11.02;;;5.15;;
71464;SDS011;59274;49.874;9.154;2024-02-26T08:14:24;10.07;;;4.73;;
71464;SDS011;59274;49.874;9.154;2024-02-26T08:16:49;10.03;;;4.73;;
71464;SDS011;59274;49.874;9.154;2024-02-26T08:19:15;10.90;;;4.73;;
71464;SDS011;59274;49.874;9.154;2024-02-26T08:21:41;12.15;;;5.50;;
71464;SDS011;59274;49.874;9.154;2024-02-26T08:24:06;10.60;;;5.20;;
71464;SDS011;59274;49.874;9.154;2024-02-26T08:26:32;13.57;;;5.10;;
71464;SDS011;59274;49.874;9.154;2024-02-26T08:28:57;11.43;;;5.00;;
71464;SDS011;59274;49.874;9.154;2024-02-26T08:31:23;12.35;;;5.30;;
71464;SDS011;59274;49.874;9.154;2024-02-26T08:33:48;12.73;;;5.50;;
71464;SDS011;59274;49.874;9.154;2024-02-26T08:36:14;11.07;;;5.10;;
71464;SDS011;59274;49.874;9.154;2024-02-26T08:38:39;10.93;;;5.30;;
71464;SDS011;59274;49.874;9.154;2024-02-26T08:41:05;12.07;;;4.93;;
71464;SDS011;59274;49.874;9.154;2024-02-26T08:43:30;10.03;;;4.90;;
71464;SDS011;59274;49.874;9.154;2024-02-26T08:45:56;12.00;;;4.67;;
71464;SDS011;59274;49.874;9.154;2024-02-26T08:48:22;9.70;;;5.55;;
71464;SDS011;59274;49.874;9.154;2024-02-26T08:50:48;12.07;;;5.60;;
71464;SDS011;59274;49.874;9.154;2024-02-26T08:53:13;12.00;;;5.43;;
71464;SDS011;59274;49.874;9.154;2024-02-26T08:55:38;12.93;;;5.95;;
71464;SDS011;59274;49.874;9.154;2024-02-26T08:58:04;12.33;;;6.30;;
71464;SDS011;59274;49.874;9.154;2024-02-26T09:00:29;10.30;;;5.70;;
71464;SDS011;59274;49.874;9.154;2024-02-26T09:02:56;11.00;;;4.72;;
71464;SDS011;59274;49.874;9.154;2024-02-26T09:05:21;10.70;;;5.37;;
71464;SDS011;59274;49.874;9.154;2024-02-26T09:07:47;13.80;;;5.18;;
71464;SDS011;59274;49.874;9.154;2024-02-26T09:10:12;10.33;;;5.27;;
71464;SDS011;59274;49.874;9.154;2024-02-26T09:12:38;25.77;;;9.50;;
71464;SDS011;59274;49.874;9.154;2024-02-26T09:15:05;12.23;;;6.40;;
71464;SDS011;59274;49.874;9.154;2024-02-26T09:17:32;15.43;;;7.38;;
71464;SDS011;59274;49.874;9.154;2024-02-26T09:20:00;14.23;;;6.63;;
71464;SDS011;59274;49.874;9.154;2024-02-26T09:22:26;14.03;;;6.70;;
71464;SDS011;59274;49.874;9.154;2024-02-26T09:24:52;12.43;;;5.78;;
71464;SDS011;59274;49.874;9.154;2024-02-26T09:27:18;18.43;;;7.03;;
71464;SDS011;59274;49.874;9.154;2024-02-26T09:29:44;11.63;;;5.70;;
71464;SDS011;59274;49.874;9.154;2024-02-26T09:32:09;16.27;;;8.20;;
71464;SDS011;59274;49.874;9.154;2024-02-26T09:34:35;10.87;;;5.20;;
71464;SDS011;59274;49.874;9.154;2024-02-26T09:37:00;10.53;;;5.20;;
71464;SDS011;59274;49.874;9.154;2024-02-26T09:39:26;10.80;;;5.13;;
71464;SDS011;59274;49.874;9.154;2024-02-26T09:41:52;10.07;;;4.80;;
71464;SDS011;59274;49.874;9.154;2024-02-26T09:44:18;10.48;;;4.75;;
71464;SDS011;59274;49.874;9.154;2024-02-26T09:46:48;10.20;;;5.13;;
71464;SDS011;59274;49.874;9.154;2024-02-26T09:49:18;10.70;;;5.07;;
71464;SDS011;59274;49.874;9.154;2024-02-26T09:51:44;12.82;;;5.07;;
71464;SDS011;59274;49.874;9.154;2024-02-26T09:54:11;9.68;;;4.53;;
71464;SDS011;59274;49.874;9.154;2024-02-26T09:56:39;9.85;;;4.80;;
71464;SDS011;59274;49.874;9.154;2024-02-26T09:59:06;10.57;;;4.80;;
71464;SDS011;59274;49.874;9.154;2024-02-26T10:01:40;11.33;;;5.40;;
71464;SDS011;59274;49.874;9.154;2024-02-26T10:04:07;13.48;;;5.63;;
71464;SDS011;59274;49.874;9.154;2024-02-26T10:06:34;10.30;;;5.40;;
71464;SDS011;59274;49.874;9.154;2024-02-26T10:09:01;10.45;;;5.30;;
71464;SDS011;59274;49.874;9.154;2024-02-26T10:11:30;11.57;;;5.47;;
71464;SDS011;59274;49.874;9.154;2024-02-26T10:13:57;10.63;;;5.20;;
71464;SDS011;59274;49.874;9.154;2024-02-26T10:16:22;13.57;;;6.03;;
71464;SDS011;59274;49.874;9.154;2024-02-26T10:18:50;14.00;;;6.30;;
71464;SDS011;59274;49.874;9.154;2024-02-26T10:21:18;13.60;;;5.90;;
71464;SDS011;59274;49.874;9.154;2024-02-26T10:23:44;11.30;;;5.65;;
71464;SDS011;59274;49.874;9.154;2024-02-26T10:26:11;12.70;;;5.10;;
71464;SDS011;59274;49.874;9.154;2024-02-26T10:28:37;11.38;;;5.70;;
71464;SDS011;59274;49.874;9.154;2024-02-26T10:31:04;13.57;;;6.47;;
71464;SDS011;59274;49.874;9.154;2024-02-26T10:33:31;13.43;;;6.72;;
71464;SDS011;59274;49.874;9.154;2024-02-26T10:36:00;9.60;;;4.72;;
71464;SDS011;59274;49.874;9.154;2024-02-26T10:38:26;11.03;;;5.10;;
71464;SDS011;59274;49.874;9.154;2024-02-26T10:40:51;9.57;;;4.57;;
71464;SDS011;59274;49.874;9.154;2024-02-26T10:43:17;10.97;;;5.33;;
71464;SDS011;59274;49.874;9.154;2024-02-26T10:45:43;11.85;;;4.72;;
71464;SDS011;59274;49.874;9.154;2024-02-26T10:48:09;10.07;;;5.05;;
71464;SDS011;59274;49.874;9.154;2024-02-26T10:50:36;13.20;;;5.65;;
71464;SDS011;59274;49.874;9.154;2024-02-26T10:53:03;9.73;;;4.85;;
71464;SDS011;59274;49.874;9.154;2024-02-26T10:55:32;11.77;;;5.33;;
71464;SDS011;59274;49.874;9.154;2024-02-26T10:58:00;11.85;;;5.10;;
71464;SDS011;59274;49.874;9.154;2024-02-26T11:00:27;10.10;;;4.65;;
71464;SDS011;59274;49.874;9.154;2024-02-26T11:02:54;9.80;;;4.53;;
71464;SDS011;59274;49.874;9.154;2024-02-26T11:05:26;10.82;;;4.78;;
71464;SDS011;59274;49.874;9.154;2024-02-26T11:07:52;11.33;;;4.83;;
71464;SDS011;59274;49.874;9.154;2024-02-26T11:10:18;10.30;;;4.50;;
71464;SDS011;59274;49.874;9.154;2024-02-26T11:12:44;11.90;;;4.50;;
71464;SDS011;59274;49.874;9.154;2024-02-26T11:15:11;11.47;;;4.77;;
71464;SDS011;59274;49.874;9.154;2024-02-26T11:17:37;11.05;;;5.07;;
71464;SDS011;59274;49.874;9.154;2024-02-26T11:20:03;11.05;;;4.75;;
71464;SDS011;59274;49.874;9.154;2024-02-26T11:22:30;11.18;;;4.95;;
71464;SDS011;59274;49.874;9.154;2024-02-26T11:24:56;9.93;;;4.67;;
71464;SDS011;59274;49.874;9.154;2024-02-26T11:27:24;10.05;;;4.45;;
71464;SDS011;59274;49.874;9.154;2024-02-26T11:29:55;9.57;;;4.28;;
71464;SDS011;59274;49.874;9.154;2024-02-26T11:32:24;8.77;;;4.27;;
71464;SDS011;59274;49.874;9.154;2024-02-26T11:34:51;9.05;;;4.18;;
71464;SDS011;59274;49.874;9.154;2024-02-26T11:37:19;9.43;;;4.35;;
71464;SDS011;59274;49.874;9.154;2024-02-26T11:39:45;10.48;;;4.40;;
71464;SDS011;59274;49.874;9.154;2024-02-26T11:42:13;10.37;;;4.30;;
71464;SDS011;59274;49.874;9.154;2024-02-26T11:44:39;8.18;;;3.45;;
71464;SDS011;59274;49.874;9.154;2024-02-26T11:47:10;8.20;;;3.75;;
71464;SDS011;59274;49.874;9.154;2024-02-26T11:49:36;9.55;;;4.22;;
71464;SDS011;59274;49.874;9.154;2024-02-26T11:52:06;9.60;;;4.40;;
71464;SDS011;59274;49.874;9.154;2024-02-26T11:57:30;8.65;;;4.05;;
71464;SDS011;59274;49.874;9.154;2024-02-26T12:02:46;9.75;;;4.60;;
71464;SDS011;59274;49.874;9.154;2024-02-26T12:05:15;8.07;;;3.75;;
71464;SDS011;59274;49.874;9.154;2024-02-26T12:07:43;9.65;;;4.10;;
71464;SDS011;59274;49.874;9.154;2024-02-26T12:13:12;8.33;;;3.70;;
71464;SDS011;59274;49.874;9.154;2024-02-26T12:15:42;7.95;;;3.78;;
71464;SDS011;59274;49.874;9.154;2024-02-26T12:18:09;8.23;;;3.92;;
71464;SDS011;59274;49.874;9.154;2024-02-26T12:20:40;9.77;;;4.00;;
71464;SDS011;59274;49.874;9.154;2024-02-26T12:23:06;9.60;;;3.73;;
71464;SDS011;59274;49.874;9.154;2024-02-26T12:25:32;8.13;;;3.63;;
71464;SDS011;59274;49.874;9.154;2024-02-26T12:27:59;11.00;;;4.03;;
71464;SDS011;59274;49.874;9.154;2024-02-26T12:30:25;7.82;;;3.50;;
71464;SDS011;59274;49.874;9.154;2024-02-26T12:32:52;8.13;;;3.83;;
71464;SDS011;59274;49.874;9.154;2024-02-26T12:35:22;9.47;;;3.40;;
71464;SDS011;59274;49.874;9.154;2024-02-26T12:37:48;8.65;;;3.83;;
71464;SDS011;59274;49.874;9.154;2024-02-26T12:40:14;7.45;;;3.50;;
71464;SDS011;59274;49.874;9.154;2024-02-26T12:42:39;9.18;;;4.20;;
71464;SDS011;59274;49.874;9.154;2024-02-26T12:45:12;7.90;;;4.10;;
71464;SDS011;59274;49.874;9.154;2024-02-26T12:47:39;7.65;;;3.65;;
71464;SDS011;59274;49.874;9.154;2024-02-26T12:50:05;7.95;;;3.83;;
71464;SDS011;59274;49.874;9.154;2024-02-26T12:52:32;10.13;;;4.05;;
71464;SDS011;59274;49.874;9.154;2024-02-26T12:54:58;7.70;;;3.80;;
71464;SDS011;59274;49.874;9.154;2024-02-26T12:57:25;8.10;;;3.60;;
71464;SDS011;59274;49.874;9.154;2024-02-26T12:59:52;8.02;;;3.42;;
71464;SDS011;59274;49.874;9.154;2024-02-26T13:02:17;7.20;;;2.92;;
71464;SDS011;59274;49.874;9.154;2024-02-26T13:04:43;6.90;;;2.57;;
71464;SDS011;59274;49.874;9.154;2024-02-26T13:07:09;8.65;;;3.47;;
71464;SDS011;59274;49.874;9.154;2024-02-26T13:09:34;8.33;;;3.57;;
71464;SDS011;59274;49.874;9.154;2024-02-26T13:12:00;7.07;;;3.42;;
71464;SDS011;59274;49.874;9.154;2024-02-26T13:14:29;5.97;;;2.70;;
71464;SDS011;59274;49.874;9.154;2024-02-26T13:17:00;7.95;;;3.10;;
71464;SDS011;59274;49.874;9.154;2024-02-26T13:19:26;7.35;;;3.17;;
71464;SDS011;59274;49.874;9.154;2024-02-26T13:21:54;6.97;;;3.03;;
71464;SDS011;59274;49.874;9.154;2024-02-26T13:24:20;7.53;;;3.27;;
71464;SDS011;59274;49.874;9.154;2024-02-26T13:26:47;7.10;;;3.03;;
71464;SDS011;59274;49.874;9.154;2024-02-26T13:29:19;6.93;;;3.05;;
71464;SDS011;59274;49.874;9.154;2024-02-26T13:31:45;5.68;;;2.30;;
71464;SDS011;59274;49.874;9.154;2024-02-26T13:34:11;7.30;;;3.22;;
71464;SDS011;59274;49.874;9.154;2024-02-26T13:36:48;9.13;;;2.88;;
71464;SDS011;59274;49.874;9.154;2024-02-26T13:39:20;7.00;;;3.00;;
71464;SDS011;59274;49.874;9.154;2024-02-26T13:41:47;6.15;;;2.97;;
71464;SDS011;59274;49.874;9.154;2024-02-26T13:44:12;6.10;;;2.80;;
71464;SDS011;59274;49.874;9.154;2024-02-26T13:46:38;9.30;;;3.67;;
71464;SDS011;59274;49.874;9.154;2024-02-26T13:49:04;7.47;;;4.10;;
71464;SDS011;59274;49.874;9.154;2024-02-26T13:51:29;9.17;;;4.17;;
71464;SDS011;59274;49.874;9.154;2024-02-26T13:54:00;7.65;;;3.40;;
71464;SDS011;59274;49.874;9.154;2024-02-26T13:56:25;7.30;;;3.30;;
71464;SDS011;59274;49.874;9.154;2024-02-26T13:58:51;6.67;;;2.90;;
71464;SDS011;59274;49.874;9.154;2024-02-26T14:01:16;7.00;;;3.40;;
71464;SDS011;59274;49.874;9.154;2024-02-26T14:03:42;7.38;;;3.47;;
71464;SDS011;59274;49.874;9.154;2024-02-26T14:06:07;9.73;;;3.43;;
71464;SDS011;59274;49.874;9.154;2024-02-26T14:08:32;8.83;;;3.50;;
71464;SDS011;59274;49.874;9.154;2024-02-26T14:10:58;7.82;;;3.05;;
71464;SDS011;59274;49.874;9.154;2024-02-26T14:13:25;6.68;;;3.08;;
71464;SDS011;59274;49.874;9.154;2024-02-26T14:15:50;8.10;;;3.30;;
71464;SDS011;59274;49.874;9.154;2024-02-26T14:18:16;8.37;;;3.17;;
71464;SDS011;59274;49.874;9.154;2024-02-26T14:20:41;9.30;;;3.70;;
71464;SDS011;59274;49.874;9.154;2024-02-26T14:23:07;6.57;;;2.73;;
71464;SDS011;59274;49.874;9.154;2024-02-26T14:25:34;6.47;;;3.15;;
71464;SDS011;59274;49.874;9.154;2024-02-26T14:28:00;6.88;;;3.10;;
71464;SDS011;59274;49.874;9.154;2024-02-26T14:30:25;7.47;;;2.87;;
71464;SDS011;59274;49.874;9.154;2024-02-26T14:32:51;7.25;;;3.00;;
71464;SDS011;59274;49.874;9.154;2024-02-26T14:35:17;7.17;;;2.97;;
71464;SDS011;59274;49.874;9.154;2024-02-26T14:37:42;6.47;;;2.90;;
71464;SDS011;59274;49.874;9.154;2024-02-26T14:40:11;4.82;;;2.42;;
71464;SDS011;59274;49.874;9.154;2024-02-26T14:42:37;5.60;;;2.55;;
71464;SDS011;59274;49.874;9.154;2024-02-26T14:45:02;6.67;;;2.30;;